createdAt,value
2019-02-10T00:01:14.991Z,50.98
2019-02-10T00:03:46.355Z,59.65
2019-02-10T00:06:24.484Z,60.63
2019-02-10T00:08:50.908Z,60.12
2019-02-10T00:11:22.177Z,63.52
2019-02-10T00:13:53.587Z,63.38
2019-02-10T00:16:25.344Z,65.75
2019-02-10T00:18:56.875Z,70.42
2019-02-10T00:21:28.515Z,71.40
2019-02-10T00:23:59.893Z,68.70
2019-02-10T00:26:33.246Z,66.40
2019-02-10T00:29:04.762Z,66.55
2019-02-10T00:31:36.263Z,67.03
2019-02-10T00:34:07.688Z,70.25
2019-02-10T00:36:39.272Z,69.37
2019-02-10T00:39:10.989Z,67.53
2019-02-10T00:41:42.764Z,69.07
2019-02-10T00:44:14.573Z,62.88
2019-02-10T00:46:46.173Z,61.13
2019-02-10T00:49:17.612Z,63.60
2019-02-10T00:51:49.032Z,64.95
2019-02-10T00:54:20.480Z,63.90
2019-02-10T00:56:52.005Z,62.65
2019-02-10T00:59:23.412Z,61.00
2019-02-10T01:01:55.120Z,60.55
2019-02-10T01:04:26.937Z,62.67
2019-02-10T01:06:58.808Z,62.45
2019-02-10T01:09:30.804Z,62.35
2019-02-10T01:12:02.507Z,58.08
2019-02-10T01:14:34.157Z,54.70
2019-02-10T01:17:05.508Z,56.80
2019-02-10T01:19:36.931Z,60.85
2019-02-10T01:22:08.931Z,54.95
2019-02-10T01:24:40.336Z,59.27
2019-02-10T01:27:11.971Z,54.23
2019-02-10T01:29:43.392Z,57.08
2019-02-10T01:32:14.684Z,56.55
2019-02-10T01:34:46.523Z,54.60
2019-02-10T01:37:18.015Z,53.78
2019-02-10T01:39:49.589Z,55.43
2019-02-10T01:42:21.187Z,55.20
2019-02-10T01:44:52.694Z,51.10
2019-02-10T01:47:24.492Z,56.45
2019-02-10T01:49:56.727Z,53.80
2019-02-10T01:52:28.002Z,51.83
2019-02-10T01:54:59.477Z,54.63
2019-02-10T01:57:31.081Z,53.45
2019-02-10T02:00:02.803Z,52.98
2019-02-10T02:02:35.618Z,51.40
2019-02-10T02:05:08.362Z,51.90
2019-02-10T02:07:39.923Z,52.60
2019-02-10T02:10:12.864Z,52.00
2019-02-10T02:12:44.254Z,51.65
2019-02-10T02:15:16.465Z,51.28
2019-02-10T02:17:48.103Z,48.60
2019-02-10T02:20:19.372Z,53.02
2019-02-10T02:22:51.020Z,49.00
2019-02-10T02:25:23.767Z,49.03
2019-02-10T02:27:55.392Z,50.95
2019-02-10T02:30:26.853Z,47.45
2019-02-10T02:32:58.112Z,46.83
2019-02-10T02:35:29.745Z,45.63
2019-02-10T02:38:01.484Z,43.20
2019-02-10T02:40:33.058Z,44.35
2019-02-10T02:43:04.846Z,43.92
2019-02-10T02:45:36.410Z,43.25
2019-02-10T02:48:07.973Z,36.23
2019-02-10T02:50:39.515Z,44.38
2019-02-10T02:53:10.955Z,45.05
2019-02-10T02:55:42.280Z,43.85
2019-02-10T02:58:14.047Z,42.85
2019-02-10T03:00:45.501Z,43.65
2019-02-10T03:03:16.872Z,43.40
2019-02-10T03:05:48.276Z,45.08
2019-02-10T03:08:19.541Z,43.40
2019-02-10T03:10:50.770Z,42.45
2019-02-10T03:13:22.143Z,42.25
2019-02-10T03:15:53.751Z,41.45
2019-02-10T03:18:25.092Z,43.23
2019-02-10T03:20:56.666Z,43.73
2019-02-10T03:23:28.122Z,44.45
2019-02-10T03:25:59.662Z,45.30
2019-02-10T03:28:31.292Z,46.90
2019-02-10T03:31:02.866Z,45.38
2019-02-10T03:33:34.376Z,45.40
2019-02-10T03:36:06.053Z,45.55
2019-02-10T03:38:37.554Z,45.12
2019-02-10T03:41:08.948Z,50.03
2019-02-10T03:43:40.559Z,49.20
2019-02-10T03:46:12.106Z,48.13
2019-02-10T03:48:43.438Z,49.90
2019-02-10T03:51:14.931Z,48.23
2019-02-10T03:53:46.244Z,48.95
2019-02-10T03:56:17.755Z,49.38
2019-02-10T03:58:49.085Z,48.78
2019-02-10T04:01:20.639Z,46.40
2019-02-10T04:03:51.928Z,48.70
2019-02-10T04:06:23.461Z,48.90
2019-02-10T04:08:55.045Z,49.15
2019-02-10T04:11:26.975Z,48.08
2019-02-10T04:13:58.593Z,46.28
2019-02-10T04:16:30.156Z,44.13
2019-02-10T04:19:01.442Z,43.42
2019-02-10T04:21:34.187Z,46.77
2019-02-10T04:24:05.906Z,44.88
2019-02-10T04:26:37.402Z,44.95
2019-02-10T04:29:09.074Z,45.35
2019-02-10T04:31:40.733Z,44.42
2019-02-10T04:34:12.242Z,45.08
2019-02-10T04:36:43.674Z,45.48
2019-02-10T04:39:15.017Z,44.38
2019-02-10T04:41:46.722Z,44.75
2019-02-10T04:44:18.375Z,45.70
2019-02-10T04:46:49.845Z,47.10
2019-02-10T04:49:21.583Z,46.63
2019-02-10T04:51:53.298Z,58.30
2019-02-10T04:54:24.682Z,65.52
2019-02-10T04:56:56.171Z,59.48
2019-02-10T04:59:27.816Z,60.90
2019-02-10T05:01:59.324Z,68.25
2019-02-10T05:04:30.920Z,73.10
2019-02-10T05:07:02.557Z,67.37
2019-02-10T05:09:34.102Z,66.15
2019-02-10T05:12:05.847Z,65.95
2019-02-10T05:14:37.545Z,62.83
2019-02-10T05:17:09.338Z,62.73
2019-02-10T05:19:41.175Z,62.10
2019-02-10T05:22:13.030Z,60.95
2019-02-10T05:24:44.604Z,62.90
2019-02-10T05:27:16.184Z,62.23
2019-02-10T05:29:47.720Z,59.18
2019-02-10T05:32:19.208Z,60.10
2019-02-10T05:34:51.791Z,56.30
2019-02-10T05:37:23.430Z,57.85
2019-02-10T05:39:55.120Z,56.63
2019-02-10T05:42:26.796Z,57.27
2019-02-10T05:44:58.462Z,58.68
2019-02-10T05:47:30.097Z,59.03
2019-02-10T05:50:01.720Z,61.83
2019-02-10T05:52:33.298Z,58.17
2019-02-10T05:55:04.892Z,58.05
2019-02-10T05:57:36.389Z,55.45
2019-02-10T06:00:08.209Z,57.70
2019-02-10T06:02:39.864Z,58.87
2019-02-10T06:05:20.287Z,54.53
2019-02-10T06:07:51.997Z,55.80
2019-02-10T06:10:23.253Z,55.25
2019-02-10T06:12:54.916Z,54.60
2019-02-10T06:15:26.216Z,59.40
2019-02-10T06:17:57.784Z,56.50
2019-02-10T06:20:29.501Z,57.43
2019-02-10T06:23:00.967Z,54.80
2019-02-10T06:25:32.198Z,54.77
2019-02-10T06:28:03.587Z,53.15
2019-02-10T06:30:35.133Z,53.85
2019-02-10T06:33:06.408Z,50.45
2019-02-10T06:35:37.984Z,48.45
2019-02-10T06:38:09.437Z,48.92
2019-02-10T06:40:40.885Z,51.37
2019-02-10T06:43:12.274Z,47.40
2019-02-10T06:45:43.547Z,49.53
2019-02-10T06:48:14.823Z,46.80
2019-02-10T06:50:46.382Z,46.75
2019-02-10T06:53:17.686Z,48.73
2019-02-10T06:55:49.306Z,48.98
2019-02-10T06:58:20.609Z,45.90
2019-02-10T07:01:14.293Z,45.88
2019-02-10T07:03:59.507Z,38.50
2019-02-10T07:06:31.068Z,40.63
2019-02-10T07:09:02.784Z,34.03
2019-02-10T07:11:34.629Z,37.38
2019-02-10T07:14:14.018Z,37.73
2019-02-10T07:17:10.331Z,35.35
2019-02-10T07:20:33.521Z,35.85
2019-02-10T07:23:44.238Z,33.78
2019-02-10T07:26:18.777Z,33.00
2019-02-10T07:29:39.983Z,33.50
2019-02-10T07:32:22.400Z,32.53
2019-02-10T07:35:37.069Z,32.38
2019-02-10T07:38:38.607Z,32.10
2019-02-10T07:42:10.749Z,31.90
2019-02-10T07:45:28.777Z,32.05
2019-02-10T07:48:49.480Z,30.80
2019-02-10T07:52:04.347Z,30.92
2019-02-10T07:55:05.396Z,30.62
2019-02-10T07:58:25.760Z,30.05
2019-02-10T08:01:19.455Z,28.73
2019-02-10T08:04:33.309Z,31.07
2019-02-10T08:07:35.701Z,28.60
2019-02-10T08:10:53.075Z,31.15
2019-02-10T08:13:40.780Z,32.03
2019-02-10T08:16:36.358Z,28.62
2019-02-10T08:19:40.465Z,31.00
2019-02-10T08:22:51.348Z,30.75
2019-02-10T08:25:56.612Z,31.02
2019-02-10T08:29:16.389Z,30.40
2019-02-10T08:32:33.403Z,29.65
2019-02-10T08:35:54.464Z,28.32
2019-02-10T08:38:59.941Z,31.85
2019-02-10T08:42:02.742Z,30.75
2019-02-10T08:44:49.652Z,29.20
2019-02-10T08:47:55.273Z,31.70
2019-02-10T08:51:10.199Z,33.30
2019-02-10T08:53:44.054Z,33.20
2019-02-10T08:56:15.676Z,33.58
2019-02-10T08:58:47.026Z,33.73
2019-02-10T09:01:18.267Z,37.17
2019-02-10T09:03:49.833Z,37.20
2019-02-10T09:06:21.222Z,37.20
2019-02-10T09:08:52.602Z,39.33
2019-02-10T09:11:24.120Z,38.78
2019-02-10T09:13:55.722Z,41.55
2019-02-10T09:16:27.334Z,44.10
2019-02-10T09:18:59.080Z,44.53
2019-02-10T09:21:30.952Z,42.73
2019-02-10T09:24:02.656Z,43.80
2019-02-10T09:26:34.276Z,40.43
2019-02-10T09:29:05.871Z,41.00
2019-02-10T09:31:38.540Z,38.20
2019-02-10T09:34:11.192Z,35.70
2019-02-10T09:36:42.938Z,35.70
2019-02-10T09:39:14.333Z,31.75
2019-02-10T09:41:45.650Z,31.45
2019-02-10T09:44:16.992Z,32.95
2019-02-10T09:46:48.952Z,32.05
2019-02-10T09:49:20.558Z,32.65
2019-02-10T09:51:52.096Z,28.05
2019-02-10T09:54:23.679Z,28.47
2019-02-10T09:56:55.058Z,25.67
2019-02-10T09:59:26.913Z,25.40
2019-02-10T10:01:57.962Z,26.50
2019-02-10T10:04:29.267Z,24.43
2019-02-10T10:07:00.697Z,22.93
2019-02-10T10:09:33.208Z,21.27
2019-02-10T10:12:05.265Z,20.67
2019-02-10T10:14:36.649Z,19.47
2019-02-10T10:17:08.112Z,23.40
2019-02-10T10:19:39.497Z,21.67
2019-02-10T10:22:10.827Z,17.30
2019-02-10T10:24:50.208Z,15.47
2019-02-10T10:27:14.856Z,13.63
2019-02-10T10:29:46.131Z,15.47
2019-02-10T10:32:17.299Z,15.03
2019-02-10T10:34:48.799Z,13.33
2019-02-10T10:37:21.102Z,11.57
2019-02-10T10:39:52.306Z,12.23
2019-02-10T10:42:23.739Z,10.40
2019-02-10T10:44:54.682Z,9.30
2019-02-10T10:47:26.257Z,9.40
2019-02-10T10:49:57.617Z,10.50
2019-02-10T10:52:29.087Z,10.33
2019-02-10T10:55:00.443Z,9.70
2019-02-10T10:57:31.996Z,8.50
2019-02-10T11:00:03.494Z,8.67
2019-02-10T11:02:34.847Z,8.50
2019-02-10T11:05:06.270Z,7.27
2019-02-10T11:07:37.519Z,7.10
2019-02-10T11:10:09.069Z,6.67
2019-02-10T11:12:40.637Z,5.17
2019-02-10T11:15:12.160Z,5.07
2019-02-10T11:17:43.419Z,5.37
2019-02-10T11:20:15.224Z,5.13
2019-02-10T11:22:46.542Z,5.03
2019-02-10T11:25:17.879Z,5.80
2019-02-10T11:27:49.265Z,5.23
2019-02-10T11:30:20.569Z,5.67
2019-02-10T11:32:52.203Z,4.57
2019-02-10T11:35:23.827Z,5.60
2019-02-10T11:37:55.226Z,5.43
2019-02-10T11:40:26.723Z,5.20
2019-02-10T11:42:58.036Z,5.30
2019-02-10T11:45:29.389Z,6.00
2019-02-10T11:48:00.677Z,6.10
2019-02-10T11:50:31.980Z,6.70
2019-02-10T11:53:03.239Z,6.83
2019-02-10T11:55:34.684Z,9.97
2019-02-10T11:58:06.531Z,5.77
2019-02-10T12:00:37.848Z,5.37
2019-02-10T12:03:09.049Z,8.30
2019-02-10T12:05:40.484Z,7.10
2019-02-10T12:08:11.583Z,7.27
2019-02-10T12:10:42.858Z,5.40
2019-02-10T12:13:14.405Z,7.40
2019-02-10T12:15:45.842Z,5.83
2019-02-10T12:18:16.846Z,6.17
2019-02-10T12:20:51.080Z,7.27
2019-02-10T12:23:22.486Z,8.37
2019-02-10T12:25:53.611Z,10.13
2019-02-10T12:28:25.025Z,5.47
2019-02-10T12:30:55.969Z,6.40
2019-02-10T12:33:27.304Z,7.63
2019-02-10T12:35:58.666Z,8.47
2019-02-10T12:38:29.680Z,6.60
2019-02-10T12:41:01.224Z,7.13
2019-02-10T12:43:32.412Z,7.70
2019-02-10T12:46:03.688Z,7.83
2019-02-10T12:48:35.160Z,7.40
2019-02-10T12:51:06.397Z,7.07
2019-02-10T12:53:37.235Z,6.40
2019-02-10T12:56:08.293Z,7.47
2019-02-10T12:58:39.315Z,7.73
2019-02-10T13:01:10.511Z,7.77
2019-02-10T13:03:41.817Z,8.27
2019-02-10T13:06:13.192Z,7.80
2019-02-10T13:08:44.522Z,6.10
2019-02-10T13:11:15.692Z,6.37
2019-02-10T13:13:46.808Z,5.13
2019-02-10T13:16:17.859Z,5.53
2019-02-10T13:18:48.888Z,7.20
2019-02-10T13:21:20.238Z,6.40
2019-02-10T13:23:51.494Z,10.07
2019-02-10T13:26:22.968Z,6.80
2019-02-10T13:28:54.147Z,6.00
2019-02-10T13:31:25.520Z,5.87
2019-02-10T13:33:56.989Z,5.80
2019-02-10T13:36:28.245Z,6.10
2019-02-10T13:38:59.816Z,6.17
2019-02-10T13:41:38.445Z,6.40
2019-02-10T13:44:09.889Z,5.87
2019-02-10T13:46:41.146Z,5.37
2019-02-10T13:49:12.244Z,6.07
2019-02-10T13:51:43.246Z,6.97
2019-02-10T13:54:14.518Z,6.47
2019-02-10T13:56:45.601Z,5.37
2019-02-10T13:59:16.913Z,6.57
2019-02-10T14:01:47.912Z,6.53
2019-02-10T14:04:19.468Z,6.10
2019-02-10T14:06:50.740Z,6.57
2019-02-10T14:09:22.066Z,12.53
2019-02-10T14:11:53.473Z,7.60
2019-02-10T14:14:24.920Z,6.53
2019-02-10T14:16:56.255Z,5.80
2019-02-10T14:19:27.449Z,6.13
2019-02-10T14:21:58.700Z,6.93
2019-02-10T14:24:29.981Z,7.10
2019-02-10T14:27:01.289Z,6.40
2019-02-10T14:29:32.738Z,7.67
2019-02-10T14:32:04.197Z,7.77
2019-02-10T14:34:35.483Z,7.30
2019-02-10T14:37:06.834Z,7.30
2019-02-10T14:39:38.195Z,8.43
2019-02-10T14:42:09.410Z,7.77
2019-02-10T14:44:40.658Z,7.33
2019-02-10T14:47:11.997Z,7.40
2019-02-10T14:49:43.236Z,11.27
2019-02-10T14:52:14.403Z,10.80
2019-02-10T14:54:45.430Z,8.77
2019-02-10T14:57:16.432Z,8.73
2019-02-10T14:59:47.361Z,7.93
2019-02-10T15:02:18.345Z,7.37
2019-02-10T15:04:49.818Z,7.33
2019-02-10T15:07:25.307Z,6.83
2019-02-10T15:09:53.540Z,7.07
2019-02-10T15:12:24.950Z,7.57
2019-02-10T15:14:56.431Z,7.27
2019-02-10T15:17:27.850Z,7.60
2019-02-10T15:19:59.134Z,7.70
2019-02-10T15:22:30.419Z,7.50
2019-02-10T15:25:01.493Z,7.40
2019-02-10T15:27:32.688Z,8.13
2019-02-10T15:30:03.978Z,10.13
2019-02-10T15:32:35.510Z,9.43
2019-02-10T15:35:07.083Z,12.20
2019-02-10T15:37:38.392Z,12.83
2019-02-10T15:40:10.085Z,13.83
2019-02-10T15:42:41.670Z,14.53
2019-02-10T15:45:12.752Z,14.43
2019-02-10T15:47:43.987Z,14.27
2019-02-10T15:50:15.683Z,12.87
2019-02-10T15:52:47.007Z,12.40
2019-02-10T15:55:18.326Z,12.93
2019-02-10T15:57:49.801Z,13.27
2019-02-10T16:00:22.904Z,13.27
2019-02-10T16:02:54.224Z,15.47
2019-02-10T16:05:25.535Z,18.57
2019-02-10T16:07:56.868Z,35.17
2019-02-10T16:10:28.203Z,40.50
2019-02-10T16:12:59.614Z,42.27
2019-02-10T16:15:30.852Z,34.33
2019-02-10T16:18:02.370Z,36.37
2019-02-10T16:20:33.434Z,35.40
2019-02-10T16:23:04.741Z,34.00
2019-02-10T16:25:36.038Z,30.20
2019-02-10T16:28:07.368Z,25.20
2019-02-10T16:30:38.610Z,35.60
2019-02-10T16:33:09.871Z,51.17
2019-02-10T16:35:41.045Z,50.63
2019-02-10T16:38:12.405Z,49.37
2019-02-10T16:40:43.663Z,47.20
2019-02-10T16:43:14.872Z,38.67
2019-02-10T16:45:46.623Z,36.07
2019-02-10T16:48:18.422Z,40.15
2019-02-10T16:50:49.725Z,40.63
2019-02-10T16:53:21.044Z,37.17
2019-02-10T16:55:52.590Z,40.00
2019-02-10T16:58:23.896Z,39.60
2019-02-10T17:00:55.371Z,47.93
2019-02-10T17:03:26.527Z,45.03
2019-02-10T17:05:58.231Z,44.53
2019-02-10T17:08:29.455Z,45.20
2019-02-10T17:11:00.911Z,42.55
2019-02-10T17:13:33.001Z,48.95
2019-02-10T17:16:05.375Z,42.48
2019-02-10T17:18:36.999Z,52.62
2019-02-10T17:21:08.617Z,46.73
2019-02-10T17:23:40.154Z,57.95
2019-02-10T17:26:12.802Z,52.45
2019-02-10T17:28:44.205Z,48.75
2019-02-10T17:31:15.439Z,47.83
2019-02-10T17:33:46.669Z,46.92
2019-02-10T17:36:18.145Z,48.70
2019-02-10T17:38:49.884Z,51.02
2019-02-10T17:41:25.804Z,42.30
2019-02-10T17:43:57.728Z,46.00
2019-02-10T17:46:29.306Z,39.40
2019-02-10T17:49:00.764Z,44.40
2019-02-10T17:51:32.506Z,34.50
2019-02-10T17:54:04.103Z,44.35
2019-02-10T17:56:35.676Z,43.60
2019-02-10T17:59:07.272Z,50.30
2019-02-10T18:01:38.753Z,57.67
2019-02-10T18:04:10.122Z,66.05
2019-02-10T18:06:41.813Z,71.37
2019-02-10T18:09:13.174Z,70.47
2019-02-10T18:11:44.796Z,59.95
2019-02-10T18:14:41.030Z,56.85
2019-02-10T18:17:49.965Z,58.20
2019-02-10T18:20:28.717Z,61.18
2019-02-10T18:23:17.843Z,60.70
2019-02-10T18:26:20.428Z,60.38
2019-02-10T18:29:13.555Z,58.25
2019-02-10T18:32:01.901Z,52.70
2019-02-10T18:34:58.162Z,46.48
2019-02-10T18:37:43.009Z,49.77
2019-02-10T18:40:39.665Z,53.23
2019-02-10T18:43:22.806Z,48.58
2019-02-10T18:46:18.671Z,49.85
2019-02-10T18:49:00.886Z,48.38
2019-02-10T18:51:43.029Z,52.55
2019-02-10T18:54:37.336Z,56.70
2019-02-10T18:57:18.311Z,59.00
2019-02-10T19:00:17.987Z,66.92
2019-02-10T19:02:59.979Z,54.90
2019-02-10T19:05:56.560Z,62.75
2019-02-10T19:08:39.341Z,55.30
2019-02-10T19:11:32.519Z,54.15
2019-02-10T19:14:25.826Z,57.88
2019-02-10T19:17:07.696Z,55.40
2019-02-10T19:20:06.895Z,53.02
2019-02-10T19:23:00.429Z,57.75
2019-02-10T19:25:51.133Z,58.17
2019-02-10T19:28:35.176Z,57.67
2019-02-10T19:31:13.319Z,53.42
2019-02-10T19:34:02.943Z,58.58
2019-02-10T19:36:52.169Z,68.10
2019-02-10T19:39:59.133Z,72.47
2019-02-10T19:42:48.386Z,73.07
2019-02-10T19:45:46.535Z,72.58
2019-02-10T19:48:37.153Z,74.40
2019-02-10T19:51:27.369Z,72.10
2019-02-10T19:54:13.368Z,61.77
2019-02-10T19:57:09.680Z,51.55
2019-02-10T20:00:09.282Z,55.78
2019-02-10T20:02:59.191Z,47.80
2019-02-10T20:06:02.357Z,46.70
2019-02-10T20:08:44.351Z,37.80
2019-02-10T20:11:41.102Z,42.00
2019-02-10T20:14:31.703Z,43.98
2019-02-10T20:17:19.334Z,42.20
2019-02-10T20:20:08.174Z,38.98
2019-02-10T20:23:04.544Z,36.80
2019-02-10T20:25:54.934Z,36.30
2019-02-10T20:28:44.184Z,36.30
2019-02-10T20:31:28.258Z,30.57
2019-02-10T20:34:18.634Z,32.30
2019-02-10T20:37:12.241Z,28.70
2019-02-10T20:39:58.717Z,29.30
2019-02-10T20:42:46.674Z,31.82
2019-02-10T20:45:40.137Z,30.57
2019-02-10T20:48:36.701Z,33.90
2019-02-10T20:51:20.239Z,30.75
2019-02-10T20:54:10.036Z,28.85
2019-02-10T20:56:48.376Z,30.05
2019-02-10T20:59:41.322Z,28.87
2019-02-10T21:02:31.852Z,29.82
2019-02-10T21:05:16.771Z,29.37
2019-02-10T21:08:13.336Z,32.00
2019-02-10T21:11:03.835Z,32.83
2019-02-10T21:13:50.672Z,30.40
2019-02-10T21:16:59.149Z,31.05
2019-02-10T21:20:02.270Z,31.65
2019-02-10T21:22:46.200Z,32.98
2019-02-10T21:25:35.774Z,34.20
2019-02-10T21:28:25.014Z,32.98
2019-02-10T21:31:14.179Z,33.83
2019-02-10T21:33:52.384Z,33.95
2019-02-10T21:36:44.869Z,32.17
2019-02-10T21:39:38.153Z,30.52
2019-02-10T21:42:29.079Z,31.65
2019-02-10T21:45:15.902Z,30.25
2019-02-10T21:47:54.724Z,31.27
2019-02-10T21:50:26.380Z,28.98
2019-02-10T21:52:57.866Z,29.92
2019-02-10T21:55:29.518Z,28.00
2019-02-10T21:58:00.908Z,25.75
2019-02-10T22:00:32.487Z,26.97
2019-02-10T22:03:04.086Z,27.65
2019-02-10T22:05:35.359Z,27.50
2019-02-10T22:08:06.998Z,25.97
2019-02-10T22:10:38.783Z,26.77
2019-02-10T22:13:10.425Z,27.60
2019-02-10T22:15:42.078Z,27.62
2019-02-10T22:18:13.736Z,27.65
2019-02-10T22:20:45.263Z,27.85
2019-02-10T22:23:16.856Z,26.42
2019-02-10T22:25:48.487Z,28.02
2019-02-10T22:28:19.809Z,26.97
2019-02-10T22:30:51.146Z,25.02
2019-02-10T22:33:22.803Z,26.68
2019-02-10T22:35:54.086Z,27.75
2019-02-10T22:38:25.751Z,30.27
2019-02-10T22:40:57.261Z,27.37
2019-02-10T22:43:28.865Z,43.52
2019-02-10T22:46:00.321Z,29.15
2019-02-10T22:48:31.644Z,29.35
2019-02-10T22:51:02.856Z,27.90
2019-02-10T22:53:34.454Z,26.82
2019-02-10T22:56:06.123Z,28.00
2019-02-10T22:58:37.781Z,27.75
2019-02-10T23:01:09.658Z,26.60
2019-02-10T23:03:41.229Z,28.52
2019-02-10T23:06:12.845Z,27.45
2019-02-10T23:08:44.317Z,26.68
2019-02-10T23:11:15.634Z,27.98
2019-02-10T23:13:47.003Z,28.15
2019-02-10T23:16:18.378Z,29.15
2019-02-10T23:18:49.601Z,30.17
2019-02-10T23:21:20.842Z,31.77
2019-02-10T23:23:52.046Z,31.10
2019-02-10T23:26:23.617Z,28.85
2019-02-10T23:28:54.854Z,30.88
2019-02-10T23:31:26.134Z,29.42
2019-02-10T23:33:57.696Z,30.25
2019-02-10T23:36:29.429Z,34.08
2019-02-10T23:39:01.026Z,31.27
2019-02-10T23:41:34.204Z,31.05
2019-02-10T23:44:05.692Z,35.83
2019-02-10T23:46:37.277Z,33.73
2019-02-10T23:49:08.852Z,31.55
2019-02-10T23:51:40.357Z,30.02
2019-02-10T23:54:11.952Z,37.60
2019-02-10T23:56:47.228Z,31.35
2019-02-10T23:59:16.259Z,31.15
